createdAt,value
2023-02-23T00:01:23.555Z,4.62
2023-02-23T00:03:50.889Z,4.59
2023-02-23T00:06:18.690Z,4.53
2023-02-23T00:08:47.877Z,4.49
2023-02-23T00:11:16.275Z,4.44
2023-02-23T00:13:46.189Z,4.36
2023-02-23T00:16:15.317Z,4.29
2023-02-23T00:18:53.721Z,4.24
2023-02-23T00:21:24.445Z,4.17
2023-02-23T00:24:01.761Z,4.14
2023-02-23T00:26:31.612Z,4.09
2023-02-23T00:28:58.610Z,4.07
2023-02-23T00:31:27.158Z,4.03
2023-02-23T00:33:55.988Z,3.95
2023-02-23T00:36:25.683Z,3.89
2023-02-23T00:38:54.231Z,3.82
2023-02-23T00:41:25.547Z,3.80
2023-02-23T00:43:54.875Z,3.80
2023-02-23T00:46:23.558Z,3.77
2023-02-23T00:48:51.022Z,3.74
2023-02-23T00:51:19.069Z,3.73
2023-02-23T00:53:45.934Z,3.66
2023-02-23T00:56:15.153Z,3.63
2023-02-23T00:58:42.624Z,3.65
2023-02-23T01:01:10.849Z,3.67
2023-02-23T01:03:38.450Z,3.66
2023-02-23T01:06:07.189Z,3.60
2023-02-23T01:08:36.206Z,3.53
2023-02-23T01:11:09.284Z,3.49
2023-02-23T01:13:36.980Z,3.45
2023-02-23T01:16:13.781Z,3.43
2023-02-23T01:18:44.472Z,3.43
2023-02-23T01:21:32.536Z,3.42
2023-02-23T01:23:59.914Z,3.39
2023-02-23T01:26:30.344Z,3.36
2023-02-23T01:29:00.557Z,3.32
2023-02-23T01:31:29.303Z,3.32
2023-02-23T01:33:57.485Z,3.37
2023-02-23T01:36:25.595Z,3.38
2023-02-23T01:38:56.928Z,3.33
2023-02-23T01:41:24.787Z,3.31
2023-02-23T01:44:06.328Z,3.31
2023-02-23T01:46:35.050Z,3.28
2023-02-23T01:49:03.935Z,3.25
2023-02-23T01:51:34.625Z,3.20
2023-02-23T01:54:14.619Z,3.11
2023-02-23T01:56:45.341Z,3.06
2023-02-23T01:59:15.208Z,3.06
2023-02-23T02:01:42.742Z,3.09
2023-02-23T02:04:16.623Z,3.10
2023-02-23T02:06:46.108Z,3.06
2023-02-23T02:09:17.503Z,3.03
2023-02-23T02:11:46.473Z,3.01
2023-02-23T02:14:13.209Z,2.97
2023-02-23T02:16:45.858Z,2.99
2023-02-23T02:19:16.772Z,2.97
2023-02-23T02:22:14.992Z,2.96
2023-02-23T02:25:03.597Z,2.95
2023-02-23T02:27:51.916Z,2.92
2023-02-23T02:30:41.681Z,2.85
2023-02-23T02:33:16.825Z,2.80
2023-02-23T02:36:02.168Z,2.78
2023-02-23T02:38:31.619Z,2.77
2023-02-23T02:41:33.050Z,2.75
2023-02-23T02:44:08.422Z,2.73
2023-02-23T02:46:48.123Z,2.74
2023-02-23T02:49:46.462Z,2.74
2023-02-23T02:52:30.210Z,2.70
2023-02-23T02:55:03.501Z,2.71
2023-02-23T02:57:33.062Z,2.69
2023-02-23T03:00:18.144Z,2.67
2023-02-23T03:03:04.119Z,2.67
2023-02-23T03:06:18.325Z,2.71
2023-02-23T03:09:20.412Z,2.70
2023-02-23T03:12:37.102Z,2.69
2023-02-23T03:15:36.497Z,2.63
2023-02-23T03:18:57.313Z,2.56
2023-02-23T03:21:53.676Z,2.55
2023-02-23T03:24:47.583Z,2.54
2023-02-23T03:27:47.428Z,2.49
2023-02-23T03:30:41.486Z,2.47
2023-02-23T03:33:44.748Z,2.44
2023-02-23T03:36:37.657Z,2.39
2023-02-23T03:39:25.986Z,2.36
2023-02-23T03:42:12.894Z,2.33
2023-02-23T03:45:01.660Z,2.30
2023-02-23T03:47:50.158Z,2.37
2023-02-23T03:50:51.009Z,2.35
2023-02-23T03:53:41.268Z,2.29
2023-02-23T03:56:28.773Z,2.27
2023-02-23T03:59:19.230Z,2.25
2023-02-23T04:02:07.174Z,2.25
2023-02-23T04:04:53.146Z,2.22
2023-02-23T04:07:39.031Z,2.23
2023-02-23T04:10:26.424Z,2.25
2023-02-23T04:13:17.139Z,2.23
2023-02-23T04:16:09.199Z,2.25
2023-02-23T04:18:37.949Z,2.30
2023-02-23T04:21:06.321Z,2.32
2023-02-23T04:23:33.846Z,2.31
2023-02-23T04:26:00.392Z,2.31
2023-02-23T04:28:29.033Z,2.36
2023-02-23T04:30:55.678Z,2.35
2023-02-23T04:33:24.962Z,2.33
2023-02-23T04:35:55.680Z,2.30
2023-02-23T04:38:23.441Z,2.26
2023-02-23T04:40:50.063Z,2.21
2023-02-23T04:43:16.630Z,2.22
2023-02-23T04:45:44.172Z,2.22
2023-02-23T04:48:10.746Z,2.20
2023-02-23T04:50:37.347Z,2.16
2023-02-23T04:53:04.083Z,2.15
2023-02-23T04:55:30.567Z,2.19
2023-02-23T04:58:00.119Z,2.16
2023-02-23T05:00:29.434Z,2.15
2023-02-23T05:02:56.699Z,2.14
2023-02-23T05:05:23.265Z,2.11
2023-02-23T05:07:49.833Z,2.05
2023-02-23T05:10:16.444Z,2.03
2023-02-23T05:12:43.003Z,2.02
2023-02-23T05:15:11.073Z,1.95
2023-02-23T05:17:42.098Z,1.98
2023-02-23T05:20:13.044Z,1.92
2023-02-23T05:22:40.076Z,1.87
2023-02-23T05:25:09.021Z,1.82
2023-02-23T05:27:36.805Z,1.80
2023-02-23T05:30:04.430Z,1.75
2023-02-23T05:32:30.973Z,1.71
2023-02-23T05:34:57.505Z,1.67
2023-02-23T05:37:24.015Z,1.68
2023-02-23T05:39:50.592Z,1.71
2023-02-23T05:42:17.052Z,1.76
2023-02-23T05:44:43.545Z,1.76
2023-02-23T05:47:10.840Z,1.73
2023-02-23T05:49:37.567Z,1.74
2023-02-23T05:52:04.346Z,1.73
2023-02-23T05:54:31.500Z,1.73
2023-02-23T05:56:59.363Z,1.76
2023-02-23T05:59:27.128Z,1.84
2023-02-23T06:01:53.659Z,1.92
2023-02-23T06:04:21.052Z,1.96
2023-02-23T06:06:47.595Z,2.02
2023-02-23T06:09:14.080Z,2.10
2023-02-23T06:11:40.691Z,2.15
2023-02-23T06:14:07.228Z,2.19
2023-02-23T06:16:33.821Z,2.21
2023-02-23T06:19:00.481Z,2.28
2023-02-23T06:21:26.921Z,2.36
2023-02-23T06:23:53.631Z,2.48
2023-02-23T06:26:20.599Z,2.57
2023-02-23T06:28:47.178Z,2.63
2023-02-23T06:31:13.701Z,2.63
2023-02-23T06:33:40.209Z,2.66
2023-02-23T06:36:07.017Z,2.75
2023-02-23T06:38:33.547Z,2.86
2023-02-23T06:41:00.016Z,3.05
2023-02-23T06:43:26.589Z,3.14
2023-02-23T06:45:53.133Z,3.28
2023-02-23T06:48:19.668Z,3.38
2023-02-23T06:50:46.129Z,3.39
2023-02-23T06:53:12.685Z,3.42
2023-02-23T06:55:39.254Z,3.48
2023-02-23T06:58:07.131Z,3.54
2023-02-23T07:00:33.747Z,3.60
2023-02-23T07:03:00.248Z,3.66
2023-02-23T07:05:27.304Z,3.69
2023-02-23T07:07:53.808Z,3.76
2023-02-23T07:10:20.430Z,3.82
2023-02-23T07:12:47.102Z,3.89
2023-02-23T07:15:14.659Z,3.91
2023-02-23T07:17:41.159Z,3.99
2023-02-23T07:20:08.029Z,4.10
2023-02-23T07:22:34.688Z,4.21
2023-02-23T07:25:01.266Z,4.37
2023-02-23T07:27:28.257Z,4.53
2023-02-23T07:29:54.829Z,4.61
2023-02-23T07:32:21.466Z,4.72
2023-02-23T07:34:48.109Z,4.85
2023-02-23T07:37:14.827Z,4.86
2023-02-23T07:39:41.345Z,4.92
2023-02-23T07:42:07.904Z,5.04
2023-02-23T07:44:34.414Z,5.09
2023-02-23T07:47:00.972Z,5.20
2023-02-23T07:49:27.492Z,5.37
2023-02-23T07:51:53.978Z,5.50
2023-02-23T07:54:21.927Z,5.70
2023-02-23T07:56:48.562Z,5.89
2023-02-23T07:59:15.384Z,6.09
2023-02-23T08:01:41.888Z,6.26
2023-02-23T08:04:08.605Z,6.54
2023-02-23T08:06:35.264Z,6.78
2023-02-23T08:09:03.954Z,7.00
2023-02-23T08:11:30.605Z,7.25
2023-02-23T08:14:00.171Z,7.38
2023-02-23T08:16:31.554Z,7.60
2023-02-23T08:18:59.433Z,7.74
2023-02-23T08:21:27.699Z,7.88
2023-02-23T08:23:54.198Z,8.05
2023-02-23T08:26:20.739Z,8.32
2023-02-23T08:28:47.444Z,8.58
2023-02-23T08:31:16.279Z,8.97
2023-02-23T08:33:42.955Z,9.16
2023-02-23T08:36:09.886Z,9.40
2023-02-23T08:38:39.529Z,9.57
2023-02-23T08:41:06.471Z,9.77
2023-02-23T08:43:33.050Z,10.02
2023-02-23T08:45:59.639Z,10.25
2023-02-23T08:48:26.498Z,10.51
2023-02-23T08:50:56.979Z,10.78
2023-02-23T08:53:25.752Z,11.01
2023-02-23T08:55:56.992Z,11.25
2023-02-23T08:58:23.597Z,11.57
2023-02-23T09:00:50.408Z,11.96
2023-02-23T09:03:17.083Z,12.43
2023-02-23T09:05:44.227Z,12.76
2023-02-23T09:08:12.317Z,13.54
2023-02-23T09:10:38.964Z,14.53
2023-02-23T09:13:05.940Z,15.61
2023-02-23T09:15:32.476Z,17.42
2023-02-23T09:18:02.552Z,19.19
2023-02-23T09:20:28.938Z,19.57
2023-02-23T09:22:55.484Z,19.85
2023-02-23T09:25:23.095Z,19.97
2023-02-23T09:27:51.892Z,19.56
2023-02-23T09:30:20.724Z,19.10
2023-02-23T09:32:48.754Z,18.93
2023-02-23T09:35:17.865Z,18.78
2023-02-23T09:37:49.280Z,18.40
2023-02-23T09:40:26.052Z,17.69
2023-02-23T09:43:06.354Z,17.41
2023-02-23T09:45:39.633Z,17.67
2023-02-23T09:48:16.608Z,19.89
2023-02-23T09:50:47.781Z,20.61
2023-02-23T09:53:39.174Z,19.92
2023-02-23T09:56:13.630Z,19.31
2023-02-23T09:58:40.533Z,18.38
2023-02-23T10:01:22.651Z,17.94
2023-02-23T10:04:07.708Z,17.33
2023-02-23T10:06:34.768Z,17.20
2023-02-23T10:09:30.715Z,17.40
2023-02-23T10:11:59.871Z,17.57
2023-02-23T10:15:06.643Z,18.08
2023-02-23T10:18:16.437Z,18.88
2023-02-23T10:20:55.014Z,19.51
2023-02-23T10:23:34.335Z,21.15
2023-02-23T10:26:03.667Z,22.75
2023-02-23T10:28:35.582Z,22.67
2023-02-23T10:31:14.050Z,23.43
2023-02-23T10:33:42.257Z,23.76
2023-02-23T10:36:26.391Z,24.71
2023-02-23T10:38:52.935Z,27.04
2023-02-23T10:41:19.636Z,27.63
2023-02-23T10:43:47.874Z,27.04
2023-02-23T10:46:29.538Z,27.70
2023-02-23T10:48:57.054Z,28.65
2023-02-23T10:51:30.109Z,28.16
2023-02-23T10:53:56.625Z,29.43
2023-02-23T10:56:24.122Z,29.44
2023-02-23T10:58:56.570Z,30.06
2023-02-23T11:02:00.966Z,30.91
2023-02-23T11:04:32.186Z,30.74
2023-02-23T11:07:17.664Z,30.99
2023-02-23T11:09:47.582Z,29.24
2023-02-23T11:12:41.764Z,27.99
2023-02-23T11:15:49.458Z,26.22
2023-02-23T11:20:53.413Z,21.43
2023-02-23T11:23:29.576Z,20.20
2023-02-23T11:26:02.480Z,19.69
2023-02-23T11:28:32.362Z,18.90
2023-02-23T11:31:15.887Z,18.31
2023-02-23T11:33:42.619Z,17.80
2023-02-23T11:36:30.628Z,17.28
2023-02-23T11:39:06.371Z,16.83
2023-02-23T11:41:35.382Z,16.50
2023-02-23T11:44:06.108Z,16.06
2023-02-23T11:46:37.747Z,15.84
2023-02-23T11:49:14.741Z,15.74
2023-02-23T11:51:46.664Z,15.51
2023-02-23T11:54:29.623Z,15.23
2023-02-23T11:56:57.977Z,15.01
2023-02-23T11:59:35.600Z,14.64
2023-02-23T12:02:25.025Z,14.53
2023-02-23T12:05:20.850Z,14.14
2023-02-23T12:07:56.348Z,14.04
2023-02-23T12:10:32.131Z,14.06
2023-02-23T12:13:24.945Z,14.02
2023-02-23T12:16:03.907Z,14.04
2023-02-23T12:18:40.434Z,13.95
2023-02-23T12:21:26.370Z,14.08
2023-02-23T12:24:03.826Z,14.31
2023-02-23T12:26:33.983Z,14.46
2023-02-23T12:29:09.687Z,14.61
2023-02-23T12:32:12.852Z,14.57
2023-02-23T12:34:48.133Z,14.63
2023-02-23T12:37:28.170Z,14.57
2023-02-23T12:40:17.621Z,14.36
2023-02-23T12:42:51.496Z,14.53
2023-02-23T12:45:25.809Z,14.94
2023-02-23T12:47:55.326Z,15.34
2023-02-23T12:50:24.905Z,15.68
2023-02-23T12:52:57.641Z,16.14
2023-02-23T12:55:50.298Z,16.25
2023-02-23T12:58:37.775Z,16.13
2023-02-23T13:01:12.740Z,16.01
2023-02-23T13:03:55.192Z,15.80
2023-02-23T13:06:59.519Z,15.78
2023-02-23T13:09:41.053Z,15.84
2023-02-23T13:12:10.462Z,15.85
2023-02-23T13:14:43.624Z,15.63
2023-02-23T13:17:22.072Z,15.73
2023-02-23T13:19:55.528Z,15.93
2023-02-23T13:22:28.084Z,15.66
2023-02-23T13:24:59.465Z,15.23
2023-02-23T13:27:42.189Z,14.95
2023-02-23T13:30:12.573Z,14.86
2023-02-23T13:32:39.504Z,14.46
2023-02-23T13:35:10.355Z,14.39
2023-02-23T13:37:52.883Z,14.32
2023-02-23T13:40:22.282Z,14.41
2023-02-23T13:42:58.711Z,14.41
2023-02-23T13:45:28.150Z,14.14
2023-02-23T13:48:13.500Z,13.95
2023-02-23T13:51:01.599Z,13.98
2023-02-23T13:53:41.921Z,14.05
2023-02-23T13:56:22.739Z,14.16
2023-02-23T13:58:54.116Z,14.24
2023-02-23T14:01:23.410Z,14.26
2023-02-23T14:03:56.145Z,14.18
2023-02-23T14:06:27.354Z,14.12
2023-02-23T14:09:22.063Z,14.12
2023-02-23T14:11:56.283Z,14.17
2023-02-23T14:14:32.129Z,14.08
2023-02-23T14:17:28.010Z,14.00
2023-02-23T14:20:29.564Z,13.95
2023-02-23T14:23:20.435Z,13.88
2023-02-23T14:25:48.780Z,13.74
2023-02-23T14:28:31.145Z,13.71
2023-02-23T14:31:11.136Z,13.53
2023-02-23T14:33:45.244Z,13.42
2023-02-23T14:36:23.664Z,13.29
2023-02-23T14:38:53.158Z,13.25
2023-02-23T14:41:41.702Z,13.16
2023-02-23T14:44:28.446Z,13.14
2023-02-23T14:47:13.067Z,13.20
2023-02-23T14:49:44.766Z,13.22
2023-02-23T14:52:24.507Z,13.38
2023-02-23T14:54:51.956Z,13.63
2023-02-23T14:57:24.165Z,13.80
2023-02-23T15:00:02.267Z,13.91
2023-02-23T15:02:30.380Z,13.98
2023-02-23T15:04:57.274Z,13.96
2023-02-23T15:07:32.908Z,13.89
2023-02-23T15:10:01.368Z,13.72
2023-02-23T15:12:36.388Z,13.47
2023-02-23T15:15:06.066Z,13.38
2023-02-23T15:17:33.992Z,13.32
2023-02-23T15:22:55.240Z,13.21
2023-02-23T15:25:27.403Z,13.08
2023-02-23T15:27:55.981Z,12.92
2023-02-23T15:30:32.626Z,12.85
2023-02-23T15:33:06.136Z,12.78
2023-02-23T15:35:42.346Z,12.68
2023-02-23T15:38:17.756Z,12.58
2023-02-23T15:40:56.120Z,12.49
2023-02-23T15:43:23.556Z,12.42
2023-02-23T15:45:52.631Z,12.37
2023-02-23T15:48:24.586Z,12.31
2023-02-23T15:50:54.934Z,12.28
2023-02-23T15:53:21.383Z,12.21
2023-02-23T15:55:48.518Z,12.15
2023-02-23T15:58:20.877Z,12.09
2023-02-23T16:00:55.225Z,12.04
2023-02-23T16:03:24.853Z,11.97
2023-02-23T16:06:06.706Z,11.92
2023-02-23T16:08:36.766Z,11.90
2023-02-23T16:11:14.773Z,11.85
2023-02-23T16:13:45.939Z,11.81
2023-02-23T16:16:20.529Z,11.75
2023-02-23T16:18:53.404Z,11.65
2023-02-23T16:21:25.394Z,11.61
2023-02-23T16:23:54.497Z,11.54
2023-02-23T16:26:26.848Z,11.43
2023-02-23T16:28:57.193Z,11.32
2023-02-23T16:31:42.156Z,11.22
2023-02-23T16:34:25.170Z,11.09
2023-02-23T16:36:57.712Z,10.94
2023-02-23T16:39:29.304Z,10.81
2023-02-23T16:41:58.603Z,10.71
2023-02-23T16:44:34.292Z,10.63
2023-02-23T16:47:08.310Z,10.56
2023-02-23T16:49:34.837Z,10.55
2023-02-23T16:52:01.542Z,10.51
2023-02-23T16:54:28.135Z,10.45
2023-02-23T16:56:55.468Z,10.37
2023-02-23T16:59:24.006Z,10.33
2023-02-23T17:01:53.147Z,10.29
2023-02-23T17:04:20.845Z,10.25
2023-02-23T17:06:57.694Z,10.19
2023-02-23T17:09:25.289Z,10.12
2023-02-23T17:11:51.793Z,10.09
2023-02-23T17:14:27.363Z,10.06
2023-02-23T17:16:54.093Z,10.00
2023-02-23T17:19:23.579Z,9.96
2023-02-23T17:21:51.168Z,9.91
2023-02-23T17:24:17.662Z,9.87
2023-02-23T17:26:44.191Z,9.83
2023-02-23T17:29:10.693Z,9.80
2023-02-23T17:31:38.517Z,9.77
2023-02-23T17:34:05.887Z,9.71
2023-02-23T17:36:32.574Z,9.68
2023-02-23T17:38:59.733Z,9.62
2023-02-23T17:41:27.242Z,9.56
2023-02-23T17:43:54.134Z,9.50
2023-02-23T17:46:21.034Z,9.49
2023-02-23T17:48:47.546Z,9.42
2023-02-23T17:51:16.823Z,9.35
2023-02-23T17:53:43.643Z,9.34
2023-02-23T17:56:10.890Z,9.36
2023-02-23T17:58:38.409Z,9.37
2023-02-23T18:01:07.052Z,9.38
2023-02-23T18:03:35.954Z,9.34
2023-02-23T18:06:04.817Z,9.34
2023-02-23T18:08:31.538Z,9.35
2023-02-23T18:10:58.459Z,9.35
2023-02-23T18:13:26.973Z,9.36
2023-02-23T18:16:03.150Z,9.35
2023-02-23T18:18:29.968Z,9.33
2023-02-23T18:20:58.709Z,9.32
2023-02-23T18:23:28.852Z,9.33
2023-02-23T18:25:55.575Z,9.30
2023-02-23T18:28:22.191Z,9.28
2023-02-23T18:30:48.661Z,9.26
2023-02-23T18:33:15.861Z,9.25
2023-02-23T18:35:45.473Z,9.19
2023-02-23T18:38:14.050Z,9.13
2023-02-23T18:40:41.165Z,9.11
2023-02-23T18:43:08.230Z,9.09
2023-02-23T18:45:35.011Z,9.06
2023-02-23T18:48:01.599Z,9.04
2023-02-23T18:50:28.433Z,9.02
2023-02-23T18:52:56.448Z,9.01
2023-02-23T18:55:23.868Z,8.96
2023-02-23T18:57:52.697Z,8.88
2023-02-23T19:00:20.466Z,8.82
2023-02-23T19:02:47.773Z,8.79
2023-02-23T19:05:16.894Z,8.73
2023-02-23T19:07:44.030Z,8.67
2023-02-23T19:10:13.096Z,8.60
2023-02-23T19:12:39.997Z,8.52
2023-02-23T19:15:08.061Z,8.47
2023-02-23T19:17:35.517Z,8.43
2023-02-23T19:20:02.493Z,8.40
2023-02-23T19:22:29.822Z,8.37
2023-02-23T19:24:56.347Z,8.35
2023-02-23T19:27:23.143Z,8.31
2023-02-23T19:29:49.613Z,8.28
2023-02-23T19:32:19.202Z,8.27
2023-02-23T19:34:48.467Z,8.25
2023-02-23T19:37:14.976Z,8.24
2023-02-23T19:39:41.592Z,8.27
2023-02-23T19:42:09.133Z,8.28
2023-02-23T19:44:35.825Z,8.27
2023-02-23T19:47:02.376Z,8.27
2023-02-23T19:49:28.840Z,8.24
2023-02-23T19:51:55.445Z,8.16
2023-02-23T19:54:21.910Z,8.10
2023-02-23T19:56:49.955Z,8.01
2023-02-23T19:59:16.567Z,7.94
2023-02-23T20:01:45.018Z,7.87
2023-02-23T20:04:11.935Z,7.77
2023-02-23T20:06:46.940Z,7.64
2023-02-23T20:09:14.322Z,7.56
2023-02-23T20:11:42.513Z,7.46
2023-02-23T20:14:10.908Z,7.37
2023-02-23T20:16:37.485Z,7.27
2023-02-23T20:19:06.485Z,7.18
2023-02-23T20:21:33.543Z,7.07
2023-02-23T20:24:05.566Z,6.95
2023-02-23T20:26:35.470Z,6.84
2023-02-23T20:29:04.726Z,6.72
2023-02-23T20:31:35.112Z,6.63
2023-02-23T20:34:07.578Z,6.57
2023-02-23T20:36:34.175Z,6.55
2023-02-23T20:39:00.690Z,6.52
2023-02-23T20:41:31.516Z,6.44
2023-02-23T20:44:01.007Z,6.35
2023-02-23T20:46:30.664Z,6.28
2023-02-23T20:48:59.226Z,6.16
2023-02-23T20:51:26.315Z,6.04
2023-02-23T20:53:52.879Z,6.00
2023-02-23T20:56:22.114Z,5.94
2023-02-23T20:58:49.075Z,5.89
2023-02-23T21:01:20.765Z,5.84
2023-02-23T21:03:47.685Z,5.75
2023-02-23T21:06:16.010Z,5.68
2023-02-23T21:08:42.705Z,5.64
2023-02-23T21:11:09.486Z,5.59
2023-02-23T21:13:36.547Z,5.59
2023-02-23T21:16:03.496Z,5.64
2023-02-23T21:18:31.067Z,5.72
2023-02-23T21:21:09.571Z,5.83
2023-02-23T21:23:43.275Z,5.90
2023-02-23T21:26:13.155Z,5.90
2023-02-23T21:28:42.191Z,5.84
2023-02-23T21:31:13.578Z,5.76
2023-02-23T21:33:42.317Z,5.69
2023-02-23T21:36:10.806Z,5.61
2023-02-23T21:38:42.210Z,5.62
2023-02-23T21:41:09.704Z,5.60
2023-02-23T21:43:38.584Z,5.50
2023-02-23T21:46:09.623Z,5.40
2023-02-23T21:48:36.377Z,5.28
2023-02-23T21:51:07.217Z,5.21
2023-02-23T21:53:35.088Z,5.21
2023-02-23T21:56:13.113Z,5.23
2023-02-23T21:58:47.334Z,5.19
2023-02-23T22:01:16.326Z,5.15
2023-02-23T22:03:44.797Z,5.08
2023-02-23T22:06:13.346Z,4.99
2023-02-23T22:08:42.991Z,4.91
2023-02-23T22:11:17.509Z,4.80
2023-02-23T22:13:45.421Z,4.71
2023-02-23T22:16:14.153Z,4.64
2023-02-23T22:18:41.696Z,4.49
2023-02-23T22:21:11.542Z,4.37
2023-02-23T22:23:39.573Z,4.33
2023-02-23T22:26:06.317Z,4.31
2023-02-23T22:28:33.723Z,4.25
2023-02-23T22:31:04.578Z,4.21
2023-02-23T22:33:31.130Z,4.18
2023-02-23T22:36:01.487Z,4.18
2023-02-23T22:38:28.254Z,4.12
2023-02-23T22:40:55.284Z,4.07
2023-02-23T22:43:22.091Z,4.02
2023-02-23T22:45:54.701Z,3.95
2023-02-23T22:48:23.288Z,3.89
2023-02-23T22:50:50.999Z,3.82
2023-02-23T22:53:17.678Z,3.84
2023-02-23T22:55:48.819Z,3.89
2023-02-23T22:58:16.118Z,3.89
2023-02-23T23:01:01.944Z,3.89
2023-02-23T23:03:35.742Z,3.80
2023-02-23T23:06:05.382Z,3.76
2023-02-23T23:08:36.900Z,3.74
2023-02-23T23:11:09.428Z,3.72
2023-02-23T23:13:44.646Z,3.72
2023-02-23T23:16:30.667Z,3.66
2023-02-23T23:19:02.681Z,3.64
2023-02-23T23:21:31.880Z,3.60
2023-02-23T23:24:01.193Z,3.55
2023-02-23T23:26:28.942Z,3.53
2023-02-23T23:28:58.374Z,3.50
2023-02-23T23:31:28.995Z,3.57
2023-02-23T23:34:00.117Z,3.66
2023-02-23T23:36:37.265Z,3.71
2023-02-23T23:39:06.260Z,3.71
2023-02-23T23:41:35.402Z,3.71
2023-02-23T23:44:05.265Z,3.60
2023-02-23T23:46:37.774Z,3.49
2023-02-23T23:49:08.663Z,3.44
2023-02-23T23:51:39.111Z,3.39
2023-02-23T23:54:09.739Z,3.42
2023-02-23T23:56:39.056Z,3.42
2023-02-23T23:59:08.757Z,3.39
